sensor_id;sensor_type;location;lat;lon;timestamp;P1;durP1;ratioP1;P2;durP2;ratioP2
76290;SDS011;65100;46.884;17.410;2023-07-09T00:01:55;11.63;;;6.80;;
76290;SDS011;65100;46.884;17.410;2023-07-09T00:04:21;11.02;;;6.47;;
76290;SDS011;65100;46.884;17.410;2023-07-09T00:06:47;10.63;;;6.40;;
76290;SDS011;65100;46.884;17.410;2023-07-09T00:09:17;10.15;;;6.50;;
76290;SDS011;65100;46.884;17.410;2023-07-09T00:11:44;12.15;;;6.65;;
76290;SDS011;65100;46.884;17.410;2023-07-09T00:14:11;10.48;;;6.50;;
76290;SDS011;65100;46.884;17.410;2023-07-09T00:16:38;12.33;;;6.83;;
76290;SDS011;65100;46.884;17.410;2023-07-09T00:19:05;11.38;;;7.07;;
76290;SDS011;65100;46.884;17.410;2023-07-09T00:21:38;11.13;;;6.32;;
76290;SDS011;65100;46.884;17.410;2023-07-09T00:24:06;12.55;;;6.65;;
76290;SDS011;65100;46.884;17.410;2023-07-09T00:26:32;11.07;;;6.32;;
76290;SDS011;65100;46.884;17.410;2023-07-09T00:28:58;11.23;;;6.70;;
76290;SDS011;65100;46.884;17.410;2023-07-09T00:31:25;11.02;;;6.40;;
76290;SDS011;65100;46.884;17.410;2023-07-09T00:33:51;11.40;;;6.35;;
76290;SDS011;65100;46.884;17.410;2023-07-09T00:38:58;11.13;;;6.60;;
76290;SDS011;65100;46.884;17.410;2023-07-09T00:41:31;11.45;;;6.50;;
76290;SDS011;65100;46.884;17.410;2023-07-09T00:43:58;11.18;;;5.93;;
76290;SDS011;65100;46.884;17.410;2023-07-09T00:49:36;10.57;;;6.30;;
76290;SDS011;65100;46.884;17.410;2023-07-09T00:54:51;10.68;;;6.30;;
76290;SDS011;65100;46.884;17.410;2023-07-09T00:57:19;12.18;;;6.45;;
76290;SDS011;65100;46.884;17.410;2023-07-09T00:59:49;13.45;;;6.70;;
76290;SDS011;65100;46.884;17.410;2023-07-09T01:02:18;10.35;;;6.35;;
76290;SDS011;65100;46.884;17.410;2023-07-09T01:04:48;13.90;;;6.47;;
76290;SDS011;65100;46.884;17.410;2023-07-09T01:07:15;11.70;;;6.63;;
76290;SDS011;65100;46.884;17.410;2023-07-09T01:09:41;10.43;;;6.40;;
76290;SDS011;65100;46.884;17.410;2023-07-09T01:12:07;11.00;;;6.00;;
76290;SDS011;65100;46.884;17.410;2023-07-09T01:14:34;10.95;;;6.30;;
76290;SDS011;65100;46.884;17.410;2023-07-09T01:17:02;11.48;;;6.53;;
76290;SDS011;65100;46.884;17.410;2023-07-09T01:19:35;11.68;;;6.93;;
76290;SDS011;65100;46.884;17.410;2023-07-09T01:22:08;12.07;;;6.45;;
76290;SDS011;65100;46.884;17.410;2023-07-09T01:25:12;10.67;;;6.30;;
76290;SDS011;65100;46.884;17.410;2023-07-09T01:27:50;12.07;;;6.50;;
76290;SDS011;65100;46.884;17.410;2023-07-09T01:30:17;11.38;;;6.45;;
76290;SDS011;65100;46.884;17.410;2023-07-09T01:32:51;11.75;;;6.68;;
76290;SDS011;65100;46.884;17.410;2023-07-09T01:35:18;11.07;;;6.40;;
76290;SDS011;65100;46.884;17.410;2023-07-09T01:37:45;10.50;;;6.50;;
76290;SDS011;65100;46.884;17.410;2023-07-09T01:40:12;11.70;;;7.00;;
76290;SDS011;65100;46.884;17.410;2023-07-09T01:42:40;10.93;;;6.50;;
76290;SDS011;65100;46.884;17.410;2023-07-09T01:45:06;11.73;;;6.55;;
76290;SDS011;65100;46.884;17.410;2023-07-09T01:47:35;12.15;;;6.47;;
76290;SDS011;65100;46.884;17.410;2023-07-09T01:50:01;11.23;;;6.73;;
76290;SDS011;65100;46.884;17.410;2023-07-09T01:52:28;11.52;;;6.85;;
76290;SDS011;65100;46.884;17.410;2023-07-09T01:54:55;11.40;;;6.75;;
76290;SDS011;65100;46.884;17.410;2023-07-09T01:57:25;11.90;;;6.72;;
76290;SDS011;65100;46.884;17.410;2023-07-09T01:59:58;12.27;;;6.67;;
76290;SDS011;65100;46.884;17.410;2023-07-09T02:02:25;12.02;;;6.68;;
76290;SDS011;65100;46.884;17.410;2023-07-09T02:04:53;12.45;;;7.03;;
76290;SDS011;65100;46.884;17.410;2023-07-09T02:07:20;12.30;;;6.88;;
76290;SDS011;65100;46.884;17.410;2023-07-09T02:09:47;11.68;;;6.60;;
76290;SDS011;65100;46.884;17.410;2023-07-09T02:12:14;11.53;;;6.50;;
76290;SDS011;65100;46.884;17.410;2023-07-09T02:14:40;13.25;;;6.75;;
76290;SDS011;65100;46.884;17.410;2023-07-09T02:17:07;15.32;;;6.75;;
76290;SDS011;65100;46.884;17.410;2023-07-09T02:19:34;12.15;;;7.13;;
76290;SDS011;65100;46.884;17.410;2023-07-09T02:21:59;12.23;;;7.00;;
76290;SDS011;65100;46.884;17.410;2023-07-09T02:24:25;13.52;;;6.43;;
76290;SDS011;65100;46.884;17.410;2023-07-09T02:26:52;11.73;;;6.07;;
76290;SDS011;65100;46.884;17.410;2023-07-09T02:29:18;12.65;;;6.88;;
76290;SDS011;65100;46.884;17.410;2023-07-09T02:31:44;10.35;;;6.55;;
76290;SDS011;65100;46.884;17.410;2023-07-09T02:34:10;11.33;;;5.97;;
76290;SDS011;65100;46.884;17.410;2023-07-09T02:36:35;11.88;;;6.25;;
76290;SDS011;65100;46.884;17.410;2023-07-09T02:39:01;11.30;;;6.13;;
76290;SDS011;65100;46.884;17.410;2023-07-09T02:41:27;11.88;;;6.53;;
76290;SDS011;65100;46.884;17.410;2023-07-09T02:43:52;12.27;;;6.70;;
76290;SDS011;65100;46.884;17.410;2023-07-09T02:46:18;11.53;;;6.30;;
76290;SDS011;65100;46.884;17.410;2023-07-09T02:48:44;12.25;;;6.35;;
76290;SDS011;65100;46.884;17.410;2023-07-09T02:51:09;10.90;;;6.43;;
76290;SDS011;65100;46.884;17.410;2023-07-09T02:53:34;9.77;;;6.27;;
76290;SDS011;65100;46.884;17.410;2023-07-09T02:56:00;11.77;;;6.63;;
76290;SDS011;65100;46.884;17.410;2023-07-09T02:58:25;10.40;;;6.80;;
76290;SDS011;65100;46.884;17.410;2023-07-09T03:00:51;10.93;;;6.63;;
76290;SDS011;65100;46.884;17.410;2023-07-09T03:03:20;11.18;;;6.90;;
76290;SDS011;65100;46.884;17.410;2023-07-09T03:05:48;12.35;;;6.72;;
76290;SDS011;65100;46.884;17.410;2023-07-09T03:08:13;11.75;;;6.80;;
76290;SDS011;65100;46.884;17.410;2023-07-09T03:10:40;11.80;;;6.53;;
76290;SDS011;65100;46.884;17.410;2023-07-09T03:13:06;12.15;;;6.65;;
76290;SDS011;65100;46.884;17.410;2023-07-09T03:15:31;10.97;;;6.80;;
76290;SDS011;65100;46.884;17.410;2023-07-09T03:17:57;10.50;;;7.10;;
76290;SDS011;65100;46.884;17.410;2023-07-09T03:20:22;10.77;;;6.80;;
76290;SDS011;65100;46.884;17.410;2023-07-09T03:22:48;11.77;;;6.77;;
76290;SDS011;65100;46.884;17.410;2023-07-09T03:25:13;11.25;;;7.07;;
76290;SDS011;65100;46.884;17.410;2023-07-09T03:27:39;11.37;;;6.90;;
76290;SDS011;65100;46.884;17.410;2023-07-09T03:30:05;10.95;;;6.88;;
76290;SDS011;65100;46.884;17.410;2023-07-09T03:32:31;12.00;;;7.00;;
76290;SDS011;65100;46.884;17.410;2023-07-09T03:34:56;11.38;;;6.85;;
76290;SDS011;65100;46.884;17.410;2023-07-09T03:37:22;12.07;;;6.80;;
76290;SDS011;65100;46.884;17.410;2023-07-09T03:39:47;10.40;;;6.73;;
76290;SDS011;65100;46.884;17.410;2023-07-09T03:42:13;10.87;;;6.70;;
76290;SDS011;65100;46.884;17.410;2023-07-09T03:44:38;11.97;;;6.93;;
76290;SDS011;65100;46.884;17.410;2023-07-09T03:47:05;10.70;;;6.65;;
76290;SDS011;65100;46.884;17.410;2023-07-09T03:49:31;10.67;;;6.20;;
76290;SDS011;65100;46.884;17.410;2023-07-09T03:51:56;10.47;;;6.73;;
76290;SDS011;65100;46.884;17.410;2023-07-09T03:54:22;11.13;;;6.63;;
76290;SDS011;65100;46.884;17.410;2023-07-09T03:56:47;10.13;;;6.43;;
76290;SDS011;65100;46.884;17.410;2023-07-09T03:59:12;11.33;;;6.63;;
76290;SDS011;65100;46.884;17.410;2023-07-09T04:01:38;10.48;;;6.90;;
76290;SDS011;65100;46.884;17.410;2023-07-09T04:04:03;13.20;;;6.33;;
76290;SDS011;65100;46.884;17.410;2023-07-09T04:06:29;10.57;;;6.70;;
76290;SDS011;65100;46.884;17.410;2023-07-09T04:08:54;10.52;;;6.75;;
76290;SDS011;65100;46.884;17.410;2023-07-09T04:11:20;12.53;;;6.57;;
76290;SDS011;65100;46.884;17.410;2023-07-09T04:13:45;10.27;;;6.60;;
76290;SDS011;65100;46.884;17.410;2023-07-09T04:16:11;10.83;;;6.50;;
76290;SDS011;65100;46.884;17.410;2023-07-09T04:18:36;11.13;;;6.60;;
76290;SDS011;65100;46.884;17.410;2023-07-09T04:21:02;10.90;;;6.33;;
76290;SDS011;65100;46.884;17.410;2023-07-09T04:23:28;10.90;;;6.63;;
76290;SDS011;65100;46.884;17.410;2023-07-09T04:25:53;9.70;;;6.10;;
76290;SDS011;65100;46.884;17.410;2023-07-09T04:28:19;10.52;;;6.20;;
76290;SDS011;65100;46.884;17.410;2023-07-09T04:30:51;9.90;;;6.47;;
76290;SDS011;65100;46.884;17.410;2023-07-09T04:33:17;11.18;;;6.38;;
76290;SDS011;65100;46.884;17.410;2023-07-09T04:35:44;10.47;;;6.20;;
76290;SDS011;65100;46.884;17.410;2023-07-09T04:38:11;10.50;;;6.35;;
76290;SDS011;65100;46.884;17.410;2023-07-09T04:40:37;10.45;;;6.35;;
76290;SDS011;65100;46.884;17.410;2023-07-09T04:43:02;9.60;;;6.00;;
76290;SDS011;65100;46.884;17.410;2023-07-09T04:45:27;10.75;;;6.03;;
76290;SDS011;65100;46.884;17.410;2023-07-09T04:47:53;11.63;;;6.50;;
76290;SDS011;65100;46.884;17.410;2023-07-09T04:50:18;10.10;;;6.67;;
76290;SDS011;65100;46.884;17.410;2023-07-09T04:52:44;12.47;;;6.43;;
76290;SDS011;65100;46.884;17.410;2023-07-09T04:55:09;10.10;;;6.20;;
76290;SDS011;65100;46.884;17.410;2023-07-09T04:57:35;10.90;;;6.40;;
76290;SDS011;65100;46.884;17.410;2023-07-09T05:00:01;10.23;;;6.32;;
76290;SDS011;65100;46.884;17.410;2023-07-09T05:02:26;10.33;;;6.00;;
76290;SDS011;65100;46.884;17.410;2023-07-09T05:04:52;9.45;;;6.40;;
76290;SDS011;65100;46.884;17.410;2023-07-09T05:07:17;10.43;;;6.17;;
76290;SDS011;65100;46.884;17.410;2023-07-09T05:09:43;11.45;;;6.18;;
76290;SDS011;65100;46.884;17.410;2023-07-09T05:12:09;10.00;;;6.30;;
76290;SDS011;65100;46.884;17.410;2023-07-09T05:14:35;11.13;;;6.50;;
76290;SDS011;65100;46.884;17.410;2023-07-09T05:17:00;10.23;;;6.40;;
76290;SDS011;65100;46.884;17.410;2023-07-09T05:19:26;11.13;;;6.45;;
76290;SDS011;65100;46.884;17.410;2023-07-09T05:21:51;10.50;;;6.50;;
76290;SDS011;65100;46.884;17.410;2023-07-09T05:24:17;10.33;;;6.60;;
76290;SDS011;65100;46.884;17.410;2023-07-09T05:26:42;11.68;;;6.80;;
76290;SDS011;65100;46.884;17.410;2023-07-09T05:29:08;10.50;;;6.67;;
76290;SDS011;65100;46.884;17.410;2023-07-09T05:31:33;10.83;;;6.60;;
76290;SDS011;65100;46.884;17.410;2023-07-09T05:34:01;12.75;;;6.22;;
76290;SDS011;65100;46.884;17.410;2023-07-09T05:36:27;10.50;;;6.35;;
76290;SDS011;65100;46.884;17.410;2023-07-09T05:38:54;9.20;;;6.13;;
76290;SDS011;65100;46.884;17.410;2023-07-09T05:41:19;9.95;;;6.35;;
76290;SDS011;65100;46.884;17.410;2023-07-09T05:43:45;10.57;;;6.60;;
76290;SDS011;65100;46.884;17.410;2023-07-09T05:46:11;10.27;;;6.77;;
76290;SDS011;65100;46.884;17.410;2023-07-09T05:48:38;9.82;;;6.50;;
76290;SDS011;65100;46.884;17.410;2023-07-09T05:51:03;10.03;;;6.43;;
76290;SDS011;65100;46.884;17.410;2023-07-09T05:53:29;12.10;;;7.07;;
76290;SDS011;65100;46.884;17.410;2023-07-09T05:55:54;10.55;;;6.60;;
76290;SDS011;65100;46.884;17.410;2023-07-09T05:58:21;12.87;;;6.50;;
76290;SDS011;65100;46.884;17.410;2023-07-09T06:00:50;10.95;;;6.22;;
76290;SDS011;65100;46.884;17.410;2023-07-09T06:03:18;10.45;;;6.55;;
76290;SDS011;65100;46.884;17.410;2023-07-09T06:05:44;10.10;;;6.40;;
76290;SDS011;65100;46.884;17.410;2023-07-09T06:08:10;10.53;;;6.73;;
76290;SDS011;65100;46.884;17.410;2023-07-09T06:10:37;11.40;;;6.47;;
76290;SDS011;65100;46.884;17.410;2023-07-09T06:13:08;12.63;;;6.90;;
76290;SDS011;65100;46.884;17.410;2023-07-09T06:15:34;11.20;;;7.07;;
76290;SDS011;65100;46.884;17.410;2023-07-09T06:17:59;11.00;;;7.10;;
76290;SDS011;65100;46.884;17.410;2023-07-09T06:20:25;10.73;;;7.07;;
76290;SDS011;65100;46.884;17.410;2023-07-09T06:22:50;11.47;;;7.33;;
76290;SDS011;65100;46.884;17.410;2023-07-09T06:25:16;11.53;;;7.20;;
76290;SDS011;65100;46.884;17.410;2023-07-09T06:27:41;12.95;;;7.03;;
76290;SDS011;65100;46.884;17.410;2023-07-09T06:30:07;11.97;;;6.97;;
76290;SDS011;65100;46.884;17.410;2023-07-09T06:32:33;13.07;;;7.10;;
76290;SDS011;65100;46.884;17.410;2023-07-09T06:34:58;10.30;;;6.93;;
76290;SDS011;65100;46.884;17.410;2023-07-09T06:37:23;11.07;;;6.70;;
76290;SDS011;65100;46.884;17.410;2023-07-09T06:39:49;11.93;;;7.37;;
76290;SDS011;65100;46.884;17.410;2023-07-09T06:42:14;9.70;;;6.27;;
76290;SDS011;65100;46.884;17.410;2023-07-09T06:44:40;10.63;;;6.30;;
76290;SDS011;65100;46.884;17.410;2023-07-09T06:47:05;11.63;;;6.83;;
76290;SDS011;65100;46.884;17.410;2023-07-09T06:49:31;12.03;;;6.90;;
76290;SDS011;65100;46.884;17.410;2023-07-09T06:51:56;11.43;;;7.17;;
76290;SDS011;65100;46.884;17.410;2023-07-09T06:54:22;11.07;;;6.60;;
76290;SDS011;65100;46.884;17.410;2023-07-09T06:56:47;10.87;;;6.67;;
76290;SDS011;65100;46.884;17.410;2023-07-09T06:59:12;10.63;;;7.00;;
76290;SDS011;65100;46.884;17.410;2023-07-09T07:01:38;12.07;;;8.65;;
76290;SDS011;65100;46.884;17.410;2023-07-09T07:04:04;14.53;;;10.33;;
76290;SDS011;65100;46.884;17.410;2023-07-09T07:06:29;15.07;;;12.97;;
76290;SDS011;65100;46.884;17.410;2023-07-09T07:08:56;15.95;;;12.40;;
76290;SDS011;65100;46.884;17.410;2023-07-09T07:11:21;16.03;;;11.83;;
76290;SDS011;65100;46.884;17.410;2023-07-09T07:13:47;13.63;;;8.73;;
76290;SDS011;65100;46.884;17.410;2023-07-09T07:16:16;14.48;;;8.52;;
76290;SDS011;65100;46.884;17.410;2023-07-09T07:18:42;12.97;;;9.57;;
76290;SDS011;65100;46.884;17.410;2023-07-09T07:21:07;13.93;;;8.38;;
76290;SDS011;65100;46.884;17.410;2023-07-09T07:23:33;11.40;;;7.63;;
76290;SDS011;65100;46.884;17.410;2023-07-09T07:25:58;11.97;;;7.90;;
76290;SDS011;65100;46.884;17.410;2023-07-09T07:28:24;13.63;;;9.02;;
76290;SDS011;65100;46.884;17.410;2023-07-09T07:30:59;11.37;;;8.00;;
76290;SDS011;65100;46.884;17.410;2023-07-09T07:33:28;13.57;;;9.88;;
76290;SDS011;65100;46.884;17.410;2023-07-09T07:35:53;13.27;;;9.07;;
76290;SDS011;65100;46.884;17.410;2023-07-09T07:38:19;13.23;;;9.07;;
76290;SDS011;65100;46.884;17.410;2023-07-09T07:40:44;13.10;;;7.60;;
76290;SDS011;65100;46.884;17.410;2023-07-09T07:43:10;11.93;;;7.85;;
76290;SDS011;65100;46.884;17.410;2023-07-09T07:45:39;11.13;;;7.40;;
76290;SDS011;65100;46.884;17.410;2023-07-09T07:48:05;12.35;;;6.60;;
76290;SDS011;65100;46.884;17.410;2023-07-09T07:50:31;11.33;;;7.07;;
76290;SDS011;65100;46.884;17.410;2023-07-09T07:52:56;11.93;;;7.07;;
76290;SDS011;65100;46.884;17.410;2023-07-09T07:55:22;10.10;;;6.70;;
76290;SDS011;65100;46.884;17.410;2023-07-09T07:57:48;11.33;;;6.93;;
76290;SDS011;65100;46.884;17.410;2023-07-09T08:00:13;11.48;;;7.10;;
76290;SDS011;65100;46.884;17.410;2023-07-09T08:02:39;11.38;;;6.50;;
76290;SDS011;65100;46.884;17.410;2023-07-09T08:05:05;10.77;;;6.97;;
76290;SDS011;65100;46.884;17.410;2023-07-09T08:07:31;10.30;;;6.40;;
76290;SDS011;65100;46.884;17.410;2023-07-09T08:09:56;9.60;;;6.40;;
76290;SDS011;65100;46.884;17.410;2023-07-09T08:12:22;9.37;;;5.77;;
76290;SDS011;65100;46.884;17.410;2023-07-09T08:14:47;9.77;;;5.77;;
76290;SDS011;65100;46.884;17.410;2023-07-09T08:17:13;9.55;;;5.95;;
76290;SDS011;65100;46.884;17.410;2023-07-09T08:19:48;10.27;;;6.00;;
76290;SDS011;65100;46.884;17.410;2023-07-09T08:25:22;9.00;;;5.78;;
76290;SDS011;65100;46.884;17.410;2023-07-09T08:27:48;10.53;;;5.90;;
76290;SDS011;65100;46.884;17.410;2023-07-09T08:30:13;10.07;;;5.93;;
76290;SDS011;65100;46.884;17.410;2023-07-09T08:32:39;9.07;;;6.10;;
76290;SDS011;65100;46.884;17.410;2023-07-09T08:35:04;9.30;;;5.83;;
76290;SDS011;65100;46.884;17.410;2023-07-09T08:37:30;9.82;;;5.60;;
76290;SDS011;65100;46.884;17.410;2023-07-09T08:39:56;10.87;;;5.40;;
76290;SDS011;65100;46.884;17.410;2023-07-09T08:42:26;10.60;;;5.55;;
76290;SDS011;65100;46.884;17.410;2023-07-09T08:45:01;8.90;;;5.27;;
76290;SDS011;65100;46.884;17.410;2023-07-09T08:50:09;9.30;;;5.57;;
76290;SDS011;65100;46.884;17.410;2023-07-09T08:52:41;9.80;;;5.60;;
76290;SDS011;65100;46.884;17.410;2023-07-09T08:55:15;11.90;;;5.68;;
76290;SDS011;65100;46.884;17.410;2023-07-09T08:57:44;8.60;;;5.50;;
76290;SDS011;65100;46.884;17.410;2023-07-09T09:03:15;8.60;;;5.40;;
76290;SDS011;65100;46.884;17.410;2023-07-09T09:05:43;9.05;;;5.60;;
76290;SDS011;65100;46.884;17.410;2023-07-09T09:10:40;10.07;;;5.47;;
76290;SDS011;65100;46.884;17.410;2023-07-09T09:13:12;8.90;;;5.38;;
76290;SDS011;65100;46.884;17.410;2023-07-09T09:15:40;8.20;;;5.30;;
76290;SDS011;65100;46.884;17.410;2023-07-09T09:20:46;10.02;;;5.55;;
76290;SDS011;65100;46.884;17.410;2023-07-09T09:23:17;7.80;;;5.07;;
76290;SDS011;65100;46.884;17.410;2023-07-09T09:25:50;8.30;;;4.97;;
76290;SDS011;65100;46.884;17.410;2023-07-09T09:28:18;8.13;;;4.90;;
76290;SDS011;65100;46.884;17.410;2023-07-09T09:30:44;8.30;;;5.40;;
76290;SDS011;65100;46.884;17.410;2023-07-09T09:33:10;8.70;;;4.73;;
76290;SDS011;65100;46.884;17.410;2023-07-09T09:35:42;9.55;;;5.43;;
76290;SDS011;65100;46.884;17.410;2023-07-09T09:38:19;9.15;;;5.50;;
76290;SDS011;65100;46.884;17.410;2023-07-09T09:40:46;8.68;;;5.55;;
76290;SDS011;65100;46.884;17.410;2023-07-09T09:43:13;10.57;;;5.70;;
76290;SDS011;65100;46.884;17.410;2023-07-09T09:45:41;9.65;;;5.50;;
76290;SDS011;65100;46.884;17.410;2023-07-09T09:48:43;9.02;;;5.35;;
76290;SDS011;65100;46.884;17.410;2023-07-09T09:51:03;10.00;;;5.30;;
76290;SDS011;65100;46.884;17.410;2023-07-09T09:53:30;9.45;;;5.40;;
76290;SDS011;65100;46.884;17.410;2023-07-09T09:56:04;8.00;;;5.03;;
76290;SDS011;65100;46.884;17.410;2023-07-09T09:58:31;8.75;;;5.13;;
76290;SDS011;65100;46.884;17.410;2023-07-09T10:00:57;8.33;;;4.97;;
76290;SDS011;65100;46.884;17.410;2023-07-09T10:03:34;9.32;;;5.03;;
76290;SDS011;65100;46.884;17.410;2023-07-09T10:06:12;9.40;;;5.00;;
76290;SDS011;65100;46.884;17.410;2023-07-09T10:14:35;8.30;;;5.20;;
76290;SDS011;65100;46.884;17.410;2023-07-09T10:25:57;7.70;;;4.80;;
76290;SDS011;65100;46.884;17.410;2023-07-09T10:31:25;9.48;;;5.18;;
76290;SDS011;65100;46.884;17.410;2023-07-09T10:39:49;10.77;;;5.53;;
76290;SDS011;65100;46.884;17.410;2023-07-09T10:42:41;10.03;;;5.63;;
76290;SDS011;65100;46.884;17.410;2023-07-09T10:45:12;10.63;;;5.47;;
76290;SDS011;65100;46.884;17.410;2023-07-09T10:47:46;9.75;;;5.70;;
76290;SDS011;65100;46.884;17.410;2023-07-09T10:50:18;10.15;;;5.57;;
76290;SDS011;65100;46.884;17.410;2023-07-09T10:52:53;9.35;;;5.30;;
76290;SDS011;65100;46.884;17.410;2023-07-09T10:55:30;9.47;;;5.37;;
76290;SDS011;65100;46.884;17.410;2023-07-09T10:58:04;8.75;;;5.70;;
76290;SDS011;65100;46.884;17.410;2023-07-09T11:00:39;8.70;;;5.28;;
76290;SDS011;65100;46.884;17.410;2023-07-09T11:06:13;8.63;;;5.30;;
76290;SDS011;65100;46.884;17.410;2023-07-09T11:08:43;8.60;;;5.67;;
76290;SDS011;65100;46.884;17.410;2023-07-09T11:11:13;8.10;;;5.50;;
76290;SDS011;65100;46.884;17.410;2023-07-09T11:13:50;9.65;;;5.70;;
76290;SDS011;65100;46.884;17.410;2023-07-09T11:16:29;8.25;;;5.32;;
76290;SDS011;65100;46.884;17.410;2023-07-09T11:19:04;10.00;;;5.78;;
76290;SDS011;65100;46.884;17.410;2023-07-09T11:21:32;9.47;;;5.50;;
76290;SDS011;65100;46.884;17.410;2023-07-09T11:24:00;9.38;;;5.28;;
76290;SDS011;65100;46.884;17.410;2023-07-09T11:26:28;8.18;;;5.13;;
76290;SDS011;65100;46.884;17.410;2023-07-09T11:29:17;9.47;;;5.50;;
76290;SDS011;65100;46.884;17.410;2023-07-09T11:31:43;9.82;;;5.93;;
76290;SDS011;65100;46.884;17.410;2023-07-09T11:41:55;13.10;;;5.60;;
76290;SDS011;65100;46.884;17.410;2023-07-09T11:44:22;10.15;;;5.55;;
76290;SDS011;65100;46.884;17.410;2023-07-09T11:49:18;8.95;;;5.82;;
76290;SDS011;65100;46.884;17.410;2023-07-09T11:51:46;9.57;;;6.00;;
76290;SDS011;65100;46.884;17.410;2023-07-09T11:54:17;8.65;;;5.57;;
76290;SDS011;65100;46.884;17.410;2023-07-09T11:56:57;10.13;;;5.85;;
76290;SDS011;65100;46.884;17.410;2023-07-09T11:59:24;9.38;;;5.97;;
76290;SDS011;65100;46.884;17.410;2023-07-09T12:01:49;8.88;;;5.80;;
76290;SDS011;65100;46.884;17.410;2023-07-09T12:04:18;8.90;;;5.80;;
76290;SDS011;65100;46.884;17.410;2023-07-09T12:06:47;9.88;;;6.10;;
76290;SDS011;65100;46.884;17.410;2023-07-09T12:09:16;9.75;;;5.97;;
76290;SDS011;65100;46.884;17.410;2023-07-09T12:11:44;10.63;;;5.95;;
76290;SDS011;65100;46.884;17.410;2023-07-09T12:14:18;9.25;;;6.20;;
76290;SDS011;65100;46.884;17.410;2023-07-09T12:16:46;9.73;;;6.07;;
76290;SDS011;65100;46.884;17.410;2023-07-09T12:19:15;9.68;;;5.82;;
76290;SDS011;65100;46.884;17.410;2023-07-09T12:21:44;9.80;;;6.13;;
76290;SDS011;65100;46.884;17.410;2023-07-09T12:24:34;10.48;;;6.00;;
76290;SDS011;65100;46.884;17.410;2023-07-09T12:27:16;9.60;;;5.97;;
76290;SDS011;65100;46.884;17.410;2023-07-09T12:29:44;9.73;;;6.07;;
76290;SDS011;65100;46.884;17.410;2023-07-09T12:32:11;8.95;;;5.88;;
76290;SDS011;65100;46.884;17.410;2023-07-09T12:34:38;9.63;;;5.75;;
76290;SDS011;65100;46.884;17.410;2023-07-09T12:37:04;9.37;;;5.90;;
76290;SDS011;65100;46.884;17.410;2023-07-09T12:39:31;9.57;;;5.70;;
76290;SDS011;65100;46.884;17.410;2023-07-09T12:42:02;9.75;;;5.85;;
76290;SDS011;65100;46.884;17.410;2023-07-09T12:44:30;8.50;;;5.60;;
76290;SDS011;65100;46.884;17.410;2023-07-09T12:46:58;9.18;;;6.03;;
76290;SDS011;65100;46.884;17.410;2023-07-09T12:49:24;9.70;;;5.43;;
76290;SDS011;65100;46.884;17.410;2023-07-09T12:51:55;9.02;;;5.50;;
76290;SDS011;65100;46.884;17.410;2023-07-09T12:54:27;10.00;;;5.63;;
76290;SDS011;65100;46.884;17.410;2023-07-09T12:56:54;9.93;;;5.55;;
76290;SDS011;65100;46.884;17.410;2023-07-09T13:02:06;11.32;;;7.20;;
76290;SDS011;65100;46.884;17.410;2023-07-09T13:04:45;9.95;;;5.85;;
76290;SDS011;65100;46.884;17.410;2023-07-09T13:07:45;11.65;;;5.90;;
76290;SDS011;65100;46.884;17.410;2023-07-09T13:12:40;10.07;;;5.70;;
76290;SDS011;65100;46.884;17.410;2023-07-09T13:17:59;9.82;;;5.68;;
76290;SDS011;65100;46.884;17.410;2023-07-09T13:20:30;8.70;;;5.60;;
76290;SDS011;65100;46.884;17.410;2023-07-09T13:22:56;9.55;;;5.75;;
76290;SDS011;65100;46.884;17.410;2023-07-09T13:25:23;9.50;;;5.50;;
76290;SDS011;65100;46.884;17.410;2023-07-09T13:27:49;9.52;;;5.50;;
76290;SDS011;65100;46.884;17.410;2023-07-09T13:30:14;8.07;;;5.77;;
76290;SDS011;65100;46.884;17.410;2023-07-09T13:32:40;12.65;;;5.60;;
76290;SDS011;65100;46.884;17.410;2023-07-09T13:35:16;10.57;;;6.20;;
76290;SDS011;65100;46.884;17.410;2023-07-09T13:37:43;10.05;;;5.90;;
76290;SDS011;65100;46.884;17.410;2023-07-09T13:40:11;10.70;;;5.40;;
76290;SDS011;65100;46.884;17.410;2023-07-09T13:42:38;8.57;;;5.10;;
76290;SDS011;65100;46.884;17.410;2023-07-09T13:45:08;9.02;;;5.40;;
76290;SDS011;65100;46.884;17.410;2023-07-09T13:47:45;7.93;;;5.43;;
76290;SDS011;65100;46.884;17.410;2023-07-09T13:50:12;9.45;;;5.47;;
76290;SDS011;65100;46.884;17.410;2023-07-09T13:52:39;8.57;;;5.47;;
76290;SDS011;65100;46.884;17.410;2023-07-09T13:55:05;9.48;;;5.47;;
76290;SDS011;65100;46.884;17.410;2023-07-09T13:57:40;9.32;;;5.55;;
76290;SDS011;65100;46.884;17.410;2023-07-09T14:00:07;8.27;;;5.27;;
76290;SDS011;65100;46.884;17.410;2023-07-09T14:02:34;8.27;;;5.32;;
76290;SDS011;65100;46.884;17.410;2023-07-09T14:05:00;8.07;;;5.10;;
76290;SDS011;65100;46.884;17.410;2023-07-09T14:07:32;8.43;;;5.32;;
76290;SDS011;65100;46.884;17.410;2023-07-09T14:10:00;8.70;;;5.43;;
76290;SDS011;65100;46.884;17.410;2023-07-09T14:12:27;8.32;;;5.38;;
76290;SDS011;65100;46.884;17.410;2023-07-09T14:14:56;9.10;;;5.63;;
76290;SDS011;65100;46.884;17.410;2023-07-09T14:17:24;9.30;;;5.60;;
76290;SDS011;65100;46.884;17.410;2023-07-09T14:19:50;8.82;;;5.60;;
76290;SDS011;65100;46.884;17.410;2023-07-09T14:22:50;9.45;;;5.50;;
76290;SDS011;65100;46.884;17.410;2023-07-09T14:25:14;8.60;;;5.40;;
76290;SDS011;65100;46.884;17.410;2023-07-09T14:27:44;8.95;;;5.47;;
76290;SDS011;65100;46.884;17.410;2023-07-09T14:30:13;9.27;;;5.57;;
76290;SDS011;65100;46.884;17.410;2023-07-09T14:32:40;8.43;;;5.45;;
76290;SDS011;65100;46.884;17.410;2023-07-09T14:35:28;8.98;;;5.53;;
76290;SDS011;65100;46.884;17.410;2023-07-09T14:37:54;9.07;;;5.60;;
76290;SDS011;65100;46.884;17.410;2023-07-09T14:40:20;10.07;;;6.00;;
76290;SDS011;65100;46.884;17.410;2023-07-09T14:42:47;9.57;;;5.47;;
76290;SDS011;65100;46.884;17.410;2023-07-09T14:45:26;9.00;;;5.65;;
76290;SDS011;65100;46.884;17.410;2023-07-09T14:47:57;9.88;;;5.57;;
76290;SDS011;65100;46.884;17.410;2023-07-09T14:50:23;9.97;;;5.57;;
76290;SDS011;65100;46.884;17.410;2023-07-09T14:52:50;8.70;;;5.70;;
76290;SDS011;65100;46.884;17.410;2023-07-09T14:55:16;9.23;;;5.70;;
76290;SDS011;65100;46.884;17.410;2023-07-09T14:57:43;8.80;;;5.65;;
76290;SDS011;65100;46.884;17.410;2023-07-09T15:00:13;8.60;;;5.63;;
76290;SDS011;65100;46.884;17.410;2023-07-09T15:02:41;8.77;;;5.53;;
76290;SDS011;65100;46.884;17.410;2023-07-09T15:07:41;8.73;;;5.53;;
76290;SDS011;65100;46.884;17.410;2023-07-09T15:10:06;10.10;;;5.60;;
76290;SDS011;65100;46.884;17.410;2023-07-09T15:12:35;10.52;;;5.20;;
76290;SDS011;65100;46.884;17.410;2023-07-09T15:17:44;9.85;;;5.70;;
76290;SDS011;65100;46.884;17.410;2023-07-09T15:20:14;10.73;;;5.40;;
76290;SDS011;65100;46.884;17.410;2023-07-09T15:22:41;8.82;;;5.40;;
76290;SDS011;65100;46.884;17.410;2023-07-09T15:25:11;9.02;;;5.35;;
76290;SDS011;65100;46.884;17.410;2023-07-09T15:27:38;8.82;;;5.80;;
76290;SDS011;65100;46.884;17.410;2023-07-09T15:30:11;10.13;;;5.60;;
76290;SDS011;65100;46.884;17.410;2023-07-09T15:32:40;8.60;;;5.47;;
76290;SDS011;65100;46.884;17.410;2023-07-09T15:35:06;8.70;;;5.70;;
76290;SDS011;65100;46.884;17.410;2023-07-09T15:37:31;8.57;;;5.43;;
76290;SDS011;65100;46.884;17.410;2023-07-09T15:39:57;8.83;;;5.60;;
76290;SDS011;65100;46.884;17.410;2023-07-09T15:42:23;8.90;;;5.60;;
76290;SDS011;65100;46.884;17.410;2023-07-09T15:44:48;8.27;;;5.30;;